createdAt,value
2018-09-28T00:00:35.333Z,1009.4
2018-09-28T00:01:36.720Z,1009.4
2018-09-28T00:02:38.155Z,1009.4
2018-09-28T00:03:39.500Z,1009.4
2018-09-28T00:04:40.914Z,1009.5
2018-09-28T00:05:42.310Z,1009.4
2018-09-28T00:06:43.699Z,1009.4
2018-09-28T00:07:45.096Z,1009.5
2018-09-28T00:08:46.478Z,1009.4
2018-09-28T00:09:47.875Z,1009.4
2018-09-28T00:10:49.255Z,1009.4
2018-09-28T00:11:50.676Z,1009.4
2018-09-28T00:12:52.069Z,1009.4
2018-09-28T00:13:53.465Z,1009.3
2018-09-28T00:14:54.854Z,1009.3
2018-09-28T00:15:56.256Z,1009.4
2018-09-28T00:16:57.649Z,1009.3
2018-09-28T00:17:59.040Z,1009.3
2018-09-28T00:19:00.426Z,1009.3
2018-09-28T00:20:01.816Z,1009.3
2018-09-28T00:21:03.206Z,1009.3
2018-09-28T00:22:04.601Z,1009.3
2018-09-28T00:23:05.987Z,1009.3
2018-09-28T00:24:07.373Z,1009.3
2018-09-28T00:25:08.774Z,1009.3
2018-09-28T00:26:10.170Z,1009.3
2018-09-28T00:27:11.560Z,1009.3
2018-09-28T00:28:12.950Z,1009.3
2018-09-28T00:29:14.345Z,1009.3
2018-09-28T00:30:15.736Z,1009.3
2018-09-28T00:31:17.134Z,1009.3
2018-09-28T00:32:18.529Z,1009.3
2018-09-28T00:33:19.948Z,1009.3
2018-09-28T00:34:21.338Z,1009.3
2018-09-28T00:35:22.728Z,1009.3
2018-09-28T00:36:24.125Z,1009.3
2018-09-28T00:37:25.510Z,1009.3
2018-09-28T00:38:26.898Z,1009.3
2018-09-28T00:39:28.288Z,1009.3
2018-09-28T00:40:29.673Z,1009.3
2018-09-28T00:41:31.065Z,1009.3
2018-09-28T00:42:32.451Z,1009.2
2018-09-28T00:43:33.844Z,1009.3
2018-09-28T00:44:35.237Z,1009.2
2018-09-28T00:45:36.626Z,1009.3
2018-09-28T00:46:38.015Z,1009.2
2018-09-28T00:47:39.401Z,1009.3
2018-09-28T00:48:40.790Z,1009.3
2018-09-28T00:49:42.179Z,1009.2
2018-09-28T00:50:43.570Z,1009.2
2018-09-28T00:51:44.957Z,1009.2
2018-09-28T00:52:46.341Z,1009.2
2018-09-28T00:53:47.733Z,1009.2
2018-09-28T00:54:49.122Z,1009.2
2018-09-28T00:55:50.509Z,1009.1
2018-09-28T00:56:51.898Z,1009.2
2018-09-28T00:57:53.288Z,1009.2
2018-09-28T00:58:54.677Z,1009.1
2018-09-28T00:59:56.068Z,1009.1
2018-09-28T01:00:57.456Z,1009.1
2018-09-28T01:01:58.843Z,1009.1
2018-09-28T01:03:00.237Z,1009.0
2018-09-28T01:04:01.630Z,1009.0
2018-09-28T01:05:03.018Z,1009.1
2018-09-28T01:06:04.409Z,1009.1
2018-09-28T01:07:05.792Z,1009.1
2018-09-28T01:08:07.181Z,1009.1
2018-09-28T01:09:08.569Z,1009.1
2018-09-28T01:10:09.957Z,1009.0
2018-09-28T01:11:11.353Z,1009.1
2018-09-28T01:12:12.740Z,1009.1
2018-09-28T01:13:14.133Z,1009.1
2018-09-28T01:14:15.523Z,1009.1
2018-09-28T01:15:16.911Z,1009.2
2018-09-28T01:16:18.301Z,1009.1
2018-09-28T01:17:19.687Z,1009.1
2018-09-28T01:18:21.079Z,1009.1
2018-09-28T01:19:22.473Z,1009.1
2018-09-28T01:20:23.860Z,1009.1
2018-09-28T01:21:25.248Z,1009.1
2018-09-28T01:22:26.687Z,1009.1
2018-09-28T01:23:28.070Z,1009.1
2018-09-28T01:24:29.459Z,1009.1
2018-09-28T01:25:30.853Z,1009.1
2018-09-28T01:26:32.241Z,1009.1
2018-09-28T01:27:33.626Z,1009.1
2018-09-28T01:28:35.012Z,1009.1
2018-09-28T01:29:36.406Z,1009.1
2018-09-28T01:30:37.792Z,1009.1
2018-09-28T01:31:39.179Z,1009.0
2018-09-28T01:32:40.568Z,1009.0
2018-09-28T01:33:41.958Z,1009.1
2018-09-28T01:34:43.349Z,1009.1
2018-09-28T01:35:44.734Z,1009.0
2018-09-28T01:36:46.128Z,1009.0
2018-09-28T01:37:47.520Z,1009.1
2018-09-28T01:38:48.907Z,1009.1
2018-09-28T01:39:50.298Z,1009.0
2018-09-28T01:40:51.686Z,1009.0
2018-09-28T01:41:53.078Z,1009.0
2018-09-28T01:42:54.466Z,1009.0
2018-09-28T01:43:55.855Z,1009.0
2018-09-28T01:44:57.257Z,1009.1
2018-09-28T01:45:58.646Z,1009.1
2018-09-28T01:47:00.037Z,1009.1
2018-09-28T01:48:01.428Z,1009.1
2018-09-28T01:49:02.811Z,1009.0
2018-09-28T01:50:04.202Z,1009.1
2018-09-28T01:51:05.589Z,1009.1
2018-09-28T01:52:06.988Z,1009.1
2018-09-28T01:53:08.373Z,1009.0
2018-09-28T01:54:09.765Z,1009.0
2018-09-28T01:55:11.151Z,1009.0
2018-09-28T01:56:12.540Z,1009.0
2018-09-28T01:57:13.925Z,1009.0
2018-09-28T01:58:15.311Z,1009.0
2018-09-28T01:59:16.702Z,1009.0
2018-09-28T02:00:18.101Z,1009.0
2018-09-28T02:01:19.479Z,1009.0
2018-09-28T02:02:20.869Z,1009.0
2018-09-28T02:03:22.260Z,1009.0
2018-09-28T02:04:23.651Z,1009.0
2018-09-28T02:05:25.039Z,1009.0
2018-09-28T02:06:26.428Z,1008.9
2018-09-28T02:07:27.820Z,1009.0
2018-09-28T02:08:29.207Z,1009.0
2018-09-28T02:09:30.602Z,1009.0
2018-09-28T02:10:31.990Z,1009.0
2018-09-28T02:11:33.380Z,1009.0
2018-09-28T02:12:34.768Z,1009.0
2018-09-28T02:13:36.155Z,1009.0
2018-09-28T02:14:37.545Z,1009.0
2018-09-28T02:15:38.942Z,1009.0
2018-09-28T02:16:40.322Z,1009.0
2018-09-28T02:17:41.712Z,1009.0
2018-09-28T02:18:43.103Z,1009.0
2018-09-28T02:19:44.485Z,1009.0
2018-09-28T02:20:45.914Z,1009.0
2018-09-28T02:21:47.300Z,1009.0
2018-09-28T02:22:48.690Z,1009.0
2018-09-28T02:23:50.078Z,1009.0
2018-09-28T02:24:51.467Z,1009.0
2018-09-28T02:25:52.853Z,1009.0
2018-09-28T02:26:54.243Z,1008.9
2018-09-28T02:27:55.631Z,1008.9
2018-09-28T02:28:57.015Z,1008.9
2018-09-28T02:29:58.405Z,1008.9
2018-09-28T02:30:59.796Z,1008.9
2018-09-28T02:32:01.181Z,1008.9
2018-09-28T02:33:02.572Z,1008.8
2018-09-28T02:34:03.959Z,1008.9
2018-09-28T02:35:05.349Z,1008.9
2018-09-28T02:36:06.742Z,1008.9
2018-09-28T02:37:08.145Z,1008.8
2018-09-28T02:38:09.536Z,1008.8
2018-09-28T02:39:10.924Z,1008.8
2018-09-28T02:40:12.316Z,1008.9
2018-09-28T02:41:13.700Z,1008.9
2018-09-28T02:42:15.091Z,1008.9
2018-09-28T02:43:16.513Z,1009.0
2018-09-28T02:44:17.870Z,1009.0
2018-09-28T02:45:19.257Z,1009.0
2018-09-28T02:46:20.647Z,1009.0
2018-09-28T02:47:22.033Z,1009.0
2018-09-28T02:48:23.427Z,1009.0
2018-09-28T02:49:24.812Z,1009.0
2018-09-28T02:50:26.206Z,1008.9
2018-09-28T02:51:27.590Z,1008.9
2018-09-28T02:52:28.978Z,1008.8
2018-09-28T02:53:30.370Z,1008.9
2018-09-28T02:54:31.762Z,1008.9
2018-09-28T02:55:33.152Z,1008.9
2018-09-28T02:56:34.529Z,1008.9
2018-09-28T02:57:35.918Z,1008.9
2018-09-28T02:58:37.313Z,1009.0
2018-09-28T02:59:38.708Z,1008.9
2018-09-28T03:00:40.095Z,1008.9
2018-09-28T03:01:41.486Z,1008.9
2018-09-28T03:02:42.872Z,1008.9
2018-09-28T03:03:44.354Z,1008.9
2018-09-28T03:04:45.741Z,1008.9
2018-09-28T03:05:47.133Z,1008.9
2018-09-28T03:06:48.522Z,1008.9
2018-09-28T03:07:49.920Z,1008.9
2018-09-28T03:08:51.310Z,1008.9
2018-09-28T03:09:52.700Z,1008.9
2018-09-28T03:10:54.089Z,1008.9
2018-09-28T03:11:55.486Z,1008.9
2018-09-28T03:12:56.875Z,1008.9
2018-09-28T03:13:58.265Z,1008.9
2018-09-28T03:14:59.652Z,1008.9
2018-09-28T03:16:01.038Z,1008.9
2018-09-28T03:17:02.445Z,1008.9
2018-09-28T03:18:03.835Z,1008.9
2018-09-28T03:19:05.228Z,1008.9
2018-09-28T03:20:06.615Z,1008.9
2018-09-28T03:21:08.007Z,1008.9
2018-09-28T03:22:09.393Z,1008.9
2018-09-28T03:23:10.788Z,1008.9
2018-09-28T03:24:12.176Z,1008.9
2018-09-28T03:25:13.564Z,1008.9
2018-09-28T03:26:14.951Z,1008.9
2018-09-28T03:27:16.339Z,1008.9
2018-09-28T03:28:17.729Z,1008.9
2018-09-28T03:29:19.114Z,1008.9
2018-09-28T03:30:20.589Z,1008.9
2018-09-28T03:31:21.970Z,1008.9
2018-09-28T03:32:23.361Z,1009.0
2018-09-28T03:33:24.753Z,1009.0
2018-09-28T03:34:26.137Z,1009.0
2018-09-28T03:35:27.531Z,1009.0
2018-09-28T03:36:28.917Z,1008.9
2018-09-28T03:37:30.308Z,1008.9
2018-09-28T03:38:31.687Z,1009.0
2018-09-28T03:39:33.084Z,1008.9
2018-09-28T03:40:34.607Z,1008.9
2018-09-28T03:41:35.859Z,1008.9
2018-09-28T03:42:37.250Z,1008.9
2018-09-28T03:43:38.638Z,1008.9
2018-09-28T03:44:40.026Z,1008.9
2018-09-28T03:45:41.415Z,1008.9
2018-09-28T03:46:42.806Z,1008.9
2018-09-28T03:47:44.195Z,1008.9
2018-09-28T03:48:45.585Z,1008.8
2018-09-28T03:49:46.980Z,1008.8
2018-09-28T03:50:48.364Z,1008.8
2018-09-28T03:51:49.779Z,1008.8
2018-09-28T03:52:51.158Z,1008.9
2018-09-28T03:53:52.598Z,1008.9
2018-09-28T03:54:53.990Z,1008.9
2018-09-28T03:55:55.373Z,1008.9
2018-09-28T03:56:56.763Z,1008.8
2018-09-28T03:57:58.154Z,1008.9
2018-09-28T03:58:59.542Z,1008.9
2018-09-28T04:00:00.930Z,1008.9
2018-09-28T04:01:02.324Z,1008.9
2018-09-28T04:02:03.710Z,1008.9
2018-09-28T04:03:05.172Z,1008.9
2018-09-28T04:04:06.491Z,1009.0
2018-09-28T04:05:07.876Z,1009.0
2018-09-28T04:06:09.264Z,1009.1
2018-09-28T04:07:10.652Z,1009.1
2018-09-28T04:08:12.120Z,1009.1
2018-09-28T04:09:13.514Z,1009.1
2018-09-28T04:10:14.906Z,1009.1
2018-09-28T04:11:16.298Z,1009.1
2018-09-28T04:12:17.686Z,1009.1
2018-09-28T04:13:19.080Z,1009.1
2018-09-28T04:14:20.465Z,1009.1
2018-09-28T04:15:21.852Z,1009.1
2018-09-28T04:16:23.244Z,1009.1
2018-09-28T04:17:24.652Z,1009.1
2018-09-28T04:18:26.115Z,1009.1
2018-09-28T04:19:27.507Z,1009.1
2018-09-28T04:20:28.894Z,1009.1
2018-09-28T04:21:30.293Z,1009.1
2018-09-28T04:22:31.667Z,1009.1
2018-09-28T04:23:33.065Z,1009.1
2018-09-28T04:24:34.449Z,1009.1
2018-09-28T04:25:35.841Z,1009.1
2018-09-28T04:26:37.235Z,1009.1
2018-09-28T04:27:38.690Z,1009.1
2018-09-28T04:28:40.014Z,1009.1
2018-09-28T04:29:41.414Z,1009.1
2018-09-28T04:30:42.803Z,1009.1
2018-09-28T04:31:44.189Z,1009.1
2018-09-28T04:32:45.577Z,1009.1
2018-09-28T04:33:46.965Z,1009.1
2018-09-28T04:34:48.352Z,1009.1
2018-09-28T04:35:49.742Z,1009.1
2018-09-28T04:36:51.129Z,1009.1
2018-09-28T04:37:52.519Z,1009.1
2018-09-28T04:38:53.908Z,1009.2
2018-09-28T04:39:55.557Z,1009.2
2018-09-28T04:40:56.906Z,1009.2
2018-09-28T04:41:58.294Z,1009.2
2018-09-28T04:42:59.686Z,1009.2
2018-09-28T04:44:01.081Z,1009.2
2018-09-28T04:45:02.593Z,1009.2
2018-09-28T04:46:03.935Z,1009.2
2018-09-28T04:47:05.328Z,1009.2
2018-09-28T04:48:06.713Z,1009.2
2018-09-28T04:49:08.102Z,1009.3
2018-09-28T04:50:09.493Z,1009.3
2018-09-28T04:51:10.879Z,1009.3
2018-09-28T04:52:12.271Z,1009.2
2018-09-28T04:53:13.656Z,1009.3
2018-09-28T04:54:15.046Z,1009.3
2018-09-28T04:55:16.436Z,1009.3
2018-09-28T04:56:17.827Z,1009.3
2018-09-28T04:57:19.214Z,1009.3
2018-09-28T04:58:20.601Z,1009.3
2018-09-28T04:59:22.007Z,1009.4
2018-09-28T05:00:23.395Z,1009.4
2018-09-28T05:01:24.788Z,1009.4
2018-09-28T05:02:26.171Z,1009.4
2018-09-28T05:03:27.560Z,1009.4
2018-09-28T05:04:28.949Z,1009.4
2018-09-28T05:05:30.340Z,1009.4
2018-09-28T05:06:32.264Z,1009.4
2018-09-28T05:07:35.419Z,1009.5
2018-09-28T05:08:36.190Z,1009.5
2018-09-28T05:09:37.577Z,1009.6
2018-09-28T05:10:38.965Z,1009.5
2018-09-28T05:11:40.350Z,1009.5
2018-09-28T05:12:41.753Z,1009.6
2018-09-28T05:13:43.146Z,1009.6
2018-09-28T05:14:44.535Z,1009.7
2018-09-28T05:15:45.929Z,1009.6
2018-09-28T05:16:49.097Z,1009.7
2018-09-28T05:17:50.484Z,1009.6
2018-09-28T05:18:51.873Z,1009.7
2018-09-28T05:19:53.264Z,1009.7
2018-09-28T05:20:54.656Z,1009.7
2018-09-28T05:21:56.044Z,1009.7
2018-09-28T05:22:57.435Z,1009.7
2018-09-28T05:23:58.821Z,1009.7
2018-09-28T05:25:00.206Z,1009.8
2018-09-28T05:26:01.604Z,1009.8
2018-09-28T05:27:02.986Z,1009.7
2018-09-28T05:28:04.376Z,1009.8
2018-09-28T05:29:05.800Z,1009.8
2018-09-28T05:30:07.201Z,1009.8
2018-09-28T05:31:08.668Z,1009.8
2018-09-28T05:32:10.064Z,1009.8
2018-09-28T05:33:11.389Z,1009.8
2018-09-28T05:34:12.776Z,1009.8
2018-09-28T05:35:14.167Z,1009.9
2018-09-28T05:36:15.553Z,1009.9
2018-09-28T05:37:16.970Z,1009.9
2018-09-28T05:38:18.334Z,1009.9
2018-09-28T05:39:19.744Z,1009.9
2018-09-28T05:40:21.120Z,1009.9
2018-09-28T05:41:22.510Z,1009.9
2018-09-28T05:42:23.903Z,1009.9
2018-09-28T05:43:25.295Z,1009.9
2018-09-28T05:44:26.684Z,1009.9
2018-09-28T05:45:28.076Z,1009.9
2018-09-28T05:46:29.470Z,1010.0
2018-09-28T05:47:30.852Z,1010.0
2018-09-28T05:48:32.242Z,1010.0
2018-09-28T05:49:33.634Z,1010.0
2018-09-28T05:50:35.026Z,1010.0
2018-09-28T05:51:36.418Z,1010.0
2018-09-28T05:52:37.809Z,1010.0
2018-09-28T05:53:39.196Z,1010.0
2018-09-28T05:54:40.588Z,1010.0
2018-09-28T05:55:41.978Z,1010.0
2018-09-28T05:56:43.369Z,1010.1
2018-09-28T05:57:44.761Z,1010.1
2018-09-28T05:58:46.168Z,1010.1
2018-09-28T05:59:47.551Z,1010.1
2018-09-28T06:00:48.947Z,1010.0
2018-09-28T06:01:50.334Z,1010.0
2018-09-28T06:02:51.723Z,1010.1
2018-09-28T06:03:53.191Z,1010.0
2018-09-28T06:04:54.585Z,1010.0
2018-09-28T06:05:55.975Z,1010.0
2018-09-28T06:06:57.366Z,1010.0
2018-09-28T06:07:58.757Z,1010.0
2018-09-28T06:09:00.146Z,1010.1
2018-09-28T06:10:01.540Z,1010.1
2018-09-28T06:11:02.937Z,1010.1
2018-09-28T06:12:04.336Z,1010.2
2018-09-28T06:13:05.735Z,1010.2
2018-09-28T06:14:07.120Z,1010.2
2018-09-28T06:15:08.523Z,1010.2
2018-09-28T06:16:09.926Z,1010.2
2018-09-28T06:17:11.318Z,1010.2
2018-09-28T06:18:12.710Z,1010.3
2018-09-28T06:19:14.127Z,1010.2
2018-09-28T06:20:15.522Z,1010.3
2018-09-28T06:21:16.931Z,1010.3
2018-09-28T06:22:18.392Z,1010.3
2018-09-28T06:23:19.805Z,1010.2
2018-09-28T06:24:21.407Z,1010.3
2018-09-28T06:25:22.852Z,1010.3
2018-09-28T06:26:24.295Z,1010.3
2018-09-28T06:27:25.636Z,1010.3
2018-09-28T06:28:27.057Z,1010.3
2018-09-28T06:29:28.414Z,1010.3
2018-09-28T06:30:29.809Z,1010.3
2018-09-28T06:31:31.201Z,1010.3
2018-09-28T06:32:32.589Z,1010.4
2018-09-28T06:33:33.986Z,1010.4
2018-09-28T06:34:35.380Z,1010.3
2018-09-28T06:35:36.815Z,1010.4
2018-09-28T06:36:38.164Z,1010.3
2018-09-28T06:37:39.807Z,1010.3
2018-09-28T06:38:41.382Z,1010.4
2018-09-28T06:39:42.782Z,1010.3
2018-09-28T06:40:44.559Z,1010.3
2018-09-28T06:41:45.996Z,1010.4
2018-09-28T06:42:47.343Z,1010.4
2018-09-28T06:43:48.742Z,1010.4
2018-09-28T06:44:50.132Z,1010.4
2018-09-28T06:45:51.522Z,1010.5
2018-09-28T06:46:52.915Z,1010.4
2018-09-28T06:47:54.371Z,1010.5
2018-09-28T06:48:55.701Z,1010.5
2018-09-28T06:49:57.093Z,1010.5
2018-09-28T06:50:58.513Z,1010.5
2018-09-28T06:51:59.893Z,1010.5
2018-09-28T06:53:01.294Z,1010.5
2018-09-28T06:54:02.746Z,1010.5
2018-09-28T06:55:04.132Z,1010.5
2018-09-28T06:56:05.525Z,1010.5
2018-09-28T06:57:06.918Z,1010.5
2018-09-28T06:58:08.383Z,1010.5
2018-09-28T06:59:09.705Z,1010.5
2018-09-28T07:00:11.151Z,1010.5
2018-09-28T07:01:12.492Z,1010.5
2018-09-28T07:02:13.884Z,1010.5
2018-09-28T07:03:15.279Z,1010.6
2018-09-28T07:04:16.671Z,1010.5
2018-09-28T07:05:18.062Z,1010.5
2018-09-28T07:06:19.503Z,1010.5
2018-09-28T07:07:20.850Z,1010.6
2018-09-28T07:08:22.246Z,1010.5
2018-09-28T07:09:23.696Z,1010.6
2018-09-28T07:10:25.059Z,1010.7
2018-09-28T07:11:26.451Z,1010.7
2018-09-28T07:12:27.840Z,1010.7
2018-09-28T07:13:29.230Z,1010.7
2018-09-28T07:14:30.626Z,1010.8
2018-09-28T07:15:32.025Z,1010.8
2018-09-28T07:16:33.446Z,1010.8
2018-09-28T07:17:34.811Z,1010.8
2018-09-28T07:18:36.250Z,1010.8
2018-09-28T07:19:37.640Z,1010.8
2018-09-28T07:20:39.037Z,1010.9
2018-09-28T07:21:40.428Z,1010.9
2018-09-28T07:22:41.870Z,1010.9
2018-09-28T07:23:43.313Z,1010.9
2018-09-28T07:24:44.768Z,1011.0
2018-09-28T07:25:46.051Z,1011.0
2018-09-28T07:26:47.439Z,1011.0
2018-09-28T07:27:48.835Z,1011.1
2018-09-28T07:28:50.228Z,1011.1
2018-09-28T07:29:51.681Z,1011.1
2018-09-28T07:30:53.789Z,1011.2
2018-09-28T07:31:55.175Z,1011.2
2018-09-28T07:32:56.569Z,1011.2
2018-09-28T07:33:57.962Z,1011.2
2018-09-28T07:34:59.350Z,1011.2
2018-09-28T07:36:00.831Z,1011.2
2018-09-28T07:37:02.319Z,1011.2
2018-09-28T07:38:03.559Z,1011.2
2018-09-28T07:39:04.955Z,1011.3
2018-09-28T07:40:06.352Z,1011.2
2018-09-28T07:41:07.744Z,1011.3
2018-09-28T07:42:09.202Z,1011.3
2018-09-28T07:43:10.530Z,1011.3
2018-09-28T07:44:11.929Z,1011.3
2018-09-28T07:45:13.324Z,1011.4
2018-09-28T07:46:14.719Z,1011.4
2018-09-28T07:47:16.113Z,1011.3
2018-09-28T07:48:17.526Z,1011.4
2018-09-28T07:49:18.968Z,1011.4
2018-09-28T07:50:20.301Z,1011.4
2018-09-28T07:51:21.694Z,1011.4
2018-09-28T07:52:23.087Z,1011.4
2018-09-28T07:53:24.496Z,1011.4
2018-09-28T07:54:25.870Z,1011.4
2018-09-28T07:55:27.263Z,1011.4
2018-09-28T07:56:28.664Z,1011.5
2018-09-28T07:57:30.058Z,1011.5
2018-09-28T07:58:31.451Z,1011.5
2018-09-28T07:59:32.906Z,1011.5
2018-09-28T08:00:34.300Z,1011.6
2018-09-28T08:01:35.697Z,1011.6
2018-09-28T08:02:37.086Z,1011.6
2018-09-28T08:03:38.479Z,1011.6
2018-09-28T08:04:39.876Z,1011.6
2018-09-28T08:05:41.282Z,1011.7
2018-09-28T08:06:42.663Z,1011.7
2018-09-28T08:07:44.055Z,1011.7
2018-09-28T08:08:45.446Z,1011.7
2018-09-28T08:09:46.838Z,1011.7
2018-09-28T08:10:48.233Z,1011.7
2018-09-28T08:11:49.626Z,1011.7
2018-09-28T08:12:51.024Z,1011.7
2018-09-28T08:13:52.413Z,1011.6
2018-09-28T08:14:53.852Z,1011.7
2018-09-28T08:15:55.239Z,1011.7
2018-09-28T08:16:56.635Z,1011.7
2018-09-28T08:17:58.088Z,1011.7
2018-09-28T08:18:59.496Z,1011.7
2018-09-28T08:20:00.890Z,1011.7
2018-09-28T08:21:02.294Z,1011.8
2018-09-28T08:22:03.691Z,1011.8
2018-09-28T08:23:05.080Z,1011.8
2018-09-28T08:24:06.470Z,1011.8
2018-09-28T08:25:07.870Z,1011.8
2018-09-28T08:26:09.286Z,1011.8
2018-09-28T08:27:10.655Z,1011.9
2018-09-28T08:28:12.049Z,1011.9
2018-09-28T08:29:13.445Z,1011.8
2018-09-28T08:30:14.890Z,1011.9
2018-09-28T08:31:16.243Z,1011.9
2018-09-28T08:32:17.636Z,1011.9
2018-09-28T08:33:19.027Z,1012.0
2018-09-28T08:34:20.424Z,1012.0
2018-09-28T08:35:21.818Z,1012.0
2018-09-28T08:36:23.283Z,1012.0
2018-09-28T08:37:24.613Z,1012.0
2018-09-28T08:38:25.998Z,1012.0
2018-09-28T08:39:27.393Z,1012.0
2018-09-28T08:40:28.789Z,1012.1
2018-09-28T08:41:30.189Z,1012.1
2018-09-28T08:42:31.572Z,1012.1
2018-09-28T08:43:33.033Z,1012.1
2018-09-28T08:44:34.358Z,1012.1
2018-09-28T08:45:35.750Z,1012.2
2018-09-28T08:46:37.156Z,1012.2
2018-09-28T08:47:38.553Z,1012.2
2018-09-28T08:48:39.950Z,1012.2
2018-09-28T08:49:41.387Z,1012.2
2018-09-28T08:50:42.788Z,1012.2
2018-09-28T08:51:44.177Z,1012.1
2018-09-28T08:52:45.568Z,1012.2
2018-09-28T08:53:46.960Z,1012.2
2018-09-28T08:54:48.352Z,1012.2
2018-09-28T08:55:49.743Z,1012.2
2018-09-28T08:56:51.136Z,1012.2
2018-09-28T08:57:52.530Z,1012.2
2018-09-28T08:58:53.934Z,1012.3
2018-09-28T08:59:55.347Z,1012.3
2018-09-28T09:00:56.733Z,1012.3
2018-09-28T09:01:58.176Z,1012.3
2018-09-28T09:02:59.524Z,1012.3
2018-09-28T09:04:00.917Z,1012.4
2018-09-28T09:05:02.314Z,1012.4
2018-09-28T09:06:03.746Z,1012.3
2018-09-28T09:07:05.144Z,1012.4
2018-09-28T09:08:06.554Z,1012.4
2018-09-28T09:09:07.930Z,1012.5
2018-09-28T09:10:09.329Z,1012.4
2018-09-28T09:11:10.721Z,1012.5
2018-09-28T09:12:12.116Z,1012.4
2018-09-28T09:13:13.508Z,1012.5
2018-09-28T09:14:14.905Z,1012.4
2018-09-28T09:15:16.701Z,1012.4
2018-09-28T09:16:18.092Z,1012.5
2018-09-28T09:17:19.487Z,1012.5
2018-09-28T09:18:20.887Z,1012.5
2018-09-28T09:19:22.302Z,1012.5
2018-09-28T09:20:23.671Z,1012.5
2018-09-28T09:21:25.065Z,1012.6
2018-09-28T09:22:26.466Z,1012.5
2018-09-28T09:23:27.860Z,1012.5
2018-09-28T09:24:29.252Z,1012.5
2018-09-28T09:25:30.653Z,1012.5
2018-09-28T09:26:32.047Z,1012.5
2018-09-28T09:27:33.442Z,1012.6
2018-09-28T09:28:34.830Z,1012.6
2018-09-28T09:29:36.226Z,1012.6
2018-09-28T09:30:37.620Z,1012.6
2018-09-28T09:31:39.020Z,1012.6
2018-09-28T09:32:40.412Z,1012.6
2018-09-28T09:33:41.829Z,1012.6
2018-09-28T09:34:43.202Z,1012.6
2018-09-28T09:35:44.592Z,1012.6
2018-09-28T09:36:45.982Z,1012.6
2018-09-28T09:37:47.382Z,1012.7
2018-09-28T09:38:48.837Z,1012.7
2018-09-28T09:39:50.244Z,1012.7
2018-09-28T09:40:51.638Z,1012.6
2018-09-28T09:41:53.037Z,1012.6
2018-09-28T09:42:54.433Z,1012.6
2018-09-28T09:43:55.825Z,1012.7
2018-09-28T09:44:57.220Z,1012.7
2018-09-28T09:45:58.615Z,1012.7
2018-09-28T09:47:00.012Z,1012.7
2018-09-28T09:48:01.414Z,1012.7
2018-09-28T09:49:02.805Z,1012.7
2018-09-28T09:50:04.199Z,1012.7
2018-09-28T09:51:05.591Z,1012.7
2018-09-28T09:52:06.986Z,1012.7
2018-09-28T09:53:08.382Z,1012.7
2018-09-28T09:54:09.781Z,1012.7
2018-09-28T09:55:11.193Z,1012.8
2018-09-28T09:56:12.586Z,1012.8
2018-09-28T09:57:13.978Z,1012.8
2018-09-28T09:58:15.409Z,1012.8
2018-09-28T09:59:16.762Z,1012.8
2018-09-28T10:00:18.163Z,1012.8
2018-09-28T10:01:19.561Z,1012.8
2018-09-28T10:02:20.968Z,1012.8
2018-09-28T10:03:22.744Z,1012.8
2018-09-28T10:04:24.139Z,1012.9
2018-09-28T10:05:25.532Z,1012.8
2018-09-28T10:06:26.927Z,1012.8
2018-09-28T10:07:28.322Z,1012.9
2018-09-28T10:08:29.726Z,1012.9
2018-09-28T10:09:31.133Z,1012.8
2018-09-28T10:10:32.513Z,1012.9
2018-09-28T10:11:33.907Z,1012.8
2018-09-28T10:12:35.431Z,1012.8
2018-09-28T10:13:36.742Z,1012.9
2018-09-28T10:14:38.112Z,1012.9
2018-09-28T10:15:39.509Z,1012.9
2018-09-28T10:16:40.925Z,1013.0
2018-09-28T10:17:42.317Z,1012.9
2018-09-28T10:18:43.712Z,1012.9
2018-09-28T10:19:45.180Z,1012.9
2018-09-28T10:20:46.546Z,1012.9
2018-09-28T10:21:47.944Z,1012.9
2018-09-28T10:22:49.367Z,1012.9
2018-09-28T10:23:50.764Z,1012.9
2018-09-28T10:24:52.224Z,1012.9
2018-09-28T10:25:53.601Z,1013.0
2018-09-28T10:26:54.999Z,1013.0
2018-09-28T10:27:56.404Z,1013.0
2018-09-28T10:28:57.819Z,1013.0
2018-09-28T10:29:59.223Z,1013.0
2018-09-28T10:31:00.620Z,1013.0
2018-09-28T10:32:02.062Z,1013.0
2018-09-28T10:33:03.455Z,1013.0
2018-09-28T10:34:04.847Z,1013.0
2018-09-28T10:35:06.266Z,1013.0
2018-09-28T10:36:07.656Z,1013.0
2018-09-28T10:37:09.049Z,1013.0
2018-09-28T10:38:10.463Z,1013.0
2018-09-28T10:39:11.878Z,1013.1
2018-09-28T10:40:13.291Z,1013.0
2018-09-28T10:41:14.724Z,1013.0
2018-09-28T10:42:16.061Z,1013.0
2018-09-28T10:43:17.458Z,1013.0
2018-09-28T10:44:18.937Z,1013.1
2018-09-28T10:45:20.394Z,1013.1
2018-09-28T10:46:21.675Z,1013.1
2018-09-28T10:47:23.069Z,1013.1
2018-09-28T10:48:24.477Z,1013.1
2018-09-28T10:49:25.879Z,1013.1
2018-09-28T10:50:27.276Z,1013.1
2018-09-28T10:51:28.775Z,1013.1
2018-09-28T10:52:30.113Z,1013.1
2018-09-28T10:53:31.466Z,1013.1
2018-09-28T10:54:32.857Z,1013.1
2018-09-28T10:55:34.271Z,1013.1
2018-09-28T10:56:35.667Z,1013.2
2018-09-28T10:57:37.060Z,1013.2
2018-09-28T10:58:38.548Z,1013.2
2018-09-28T10:59:39.885Z,1013.2
2018-09-28T11:00:41.274Z,1013.2
2018-09-28T11:01:42.668Z,1013.1
2018-09-28T11:02:44.064Z,1013.1
2018-09-28T11:03:45.538Z,1013.2
2018-09-28T11:04:46.995Z,1013.2
2018-09-28T11:05:48.289Z,1013.2
2018-09-28T11:06:49.720Z,1013.2
2018-09-28T11:07:51.102Z,1013.2
2018-09-28T11:08:52.497Z,1013.2
2018-09-28T11:09:53.906Z,1013.2
2018-09-28T11:10:55.295Z,1013.2
2018-09-28T11:11:56.689Z,1013.2
2018-09-28T11:12:58.105Z,1013.2
2018-09-28T11:13:59.505Z,1013.2
2018-09-28T11:15:00.900Z,1013.2
2018-09-28T11:16:02.338Z,1013.2
2018-09-28T11:17:03.733Z,1013.2
2018-09-28T11:18:05.177Z,1013.2
2018-09-28T11:19:06.602Z,1013.3
2018-09-28T11:20:07.993Z,1013.2
2018-09-28T11:21:09.404Z,1013.3
2018-09-28T11:22:10.835Z,1013.2
2018-09-28T11:23:12.228Z,1013.3
2018-09-28T11:24:13.622Z,1013.2
2018-09-28T11:25:15.042Z,1013.2
2018-09-28T11:26:16.469Z,1013.2
2018-09-28T11:27:17.895Z,1013.2
2018-09-28T11:28:19.255Z,1013.2
2018-09-28T11:29:20.648Z,1013.1
2018-09-28T11:30:22.036Z,1013.1
2018-09-28T11:31:23.435Z,1013.1
2018-09-28T11:32:24.831Z,1013.2
2018-09-28T11:33:26.303Z,1013.2
2018-09-28T11:34:27.694Z,1013.2
2018-09-28T11:35:29.108Z,1013.2
2018-09-28T11:36:30.502Z,1013.2
2018-09-28T11:37:31.928Z,1013.2
2018-09-28T11:38:33.304Z,1013.3
2018-09-28T11:39:34.700Z,1013.2
2018-09-28T11:40:36.137Z,1013.3
2018-09-28T11:41:37.535Z,1013.2
2018-09-28T11:42:38.934Z,1013.2
2018-09-28T11:43:40.323Z,1013.3
2018-09-28T11:44:41.730Z,1013.2
2018-09-28T11:45:43.166Z,1013.3
2018-09-28T11:46:44.522Z,1013.2
2018-09-28T11:47:45.923Z,1013.2
2018-09-28T11:48:47.318Z,1013.2
2018-09-28T11:49:48.721Z,1013.2
2018-09-28T11:50:50.117Z,1013.2
2018-09-28T11:51:51.563Z,1013.3
2018-09-28T11:52:52.902Z,1013.3
2018-09-28T11:53:54.293Z,1013.3
2018-09-28T11:54:55.690Z,1013.3
2018-09-28T11:55:57.081Z,1013.3
2018-09-28T11:56:58.480Z,1013.2
2018-09-28T11:57:59.870Z,1013.2
2018-09-28T11:59:01.262Z,1013.2
2018-09-28T12:00:02.677Z,1013.2
2018-09-28T12:01:04.058Z,1013.2
2018-09-28T12:02:05.457Z,1013.3
2018-09-28T12:03:06.858Z,1013.3
2018-09-28T12:04:08.246Z,1013.2
2018-09-28T12:05:09.691Z,1013.2
2018-09-28T12:06:11.048Z,1013.2
2018-09-28T12:07:12.449Z,1013.2
2018-09-28T12:08:13.858Z,1013.2
2018-09-28T12:09:15.303Z,1013.2
2018-09-28T12:10:16.650Z,1013.2
2018-09-28T12:11:18.045Z,1013.2
2018-09-28T12:12:19.505Z,1013.2
2018-09-28T12:13:20.870Z,1013.2
2018-09-28T12:14:22.268Z,1013.2
2018-09-28T12:15:23.732Z,1013.2
2018-09-28T12:16:25.066Z,1013.3
2018-09-28T12:17:26.457Z,1013.3
2018-09-28T12:18:27.906Z,1013.3
2018-09-28T12:19:29.257Z,1013.3
2018-09-28T12:20:30.655Z,1013.3
2018-09-28T12:21:32.056Z,1013.3
2018-09-28T12:22:33.445Z,1013.2
2018-09-28T12:23:34.839Z,1013.3
2018-09-28T12:24:36.255Z,1013.3
2018-09-28T12:25:37.639Z,1013.3
2018-09-28T12:26:39.031Z,1013.3
2018-09-28T12:27:40.488Z,1013.3
2018-09-28T12:28:41.835Z,1013.3
2018-09-28T12:29:43.230Z,1013.3
2018-09-28T12:30:44.745Z,1013.4
2018-09-28T12:31:46.032Z,1013.3
2018-09-28T12:32:47.414Z,1013.3
2018-09-28T12:33:48.884Z,1013.3
2018-09-28T12:34:50.207Z,1013.3
2018-09-28T12:35:51.599Z,1013.3
2018-09-28T12:36:53.056Z,1013.3
2018-09-28T12:37:54.389Z,1013.3
2018-09-28T12:38:55.834Z,1013.3
2018-09-28T12:39:57.259Z,1013.3
2018-09-28T12:40:58.589Z,1013.3
2018-09-28T12:41:59.992Z,1013.3
2018-09-28T12:43:01.391Z,1013.3
2018-09-28T12:44:02.789Z,1013.3
2018-09-28T12:45:04.284Z,1013.4
2018-09-28T12:46:05.578Z,1013.5